createdAt,value
2023-04-23T00:00:17.716Z,57.46
2023-04-23T00:01:17.718Z,57.46
2023-04-23T00:02:17.810Z,57.56
2023-04-23T00:03:17.861Z,57.67
2023-04-23T00:04:17.845Z,57.56
2023-04-23T00:05:17.704Z,57.67
2023-04-23T00:06:17.675Z,57.67
2023-04-23T00:07:17.623Z,57.76
2023-04-23T00:08:17.632Z,57.76
2023-04-23T00:09:17.613Z,57.79
2023-04-23T00:10:17.615Z,57.76
2023-04-23T00:11:17.603Z,57.89
2023-04-23T00:12:17.550Z,58.00
2023-04-23T00:13:17.561Z,57.89
2023-04-23T00:14:17.540Z,57.89
2023-04-23T00:15:17.521Z,57.89
2023-04-23T00:16:17.533Z,57.79
2023-04-23T00:17:17.509Z,58.00
2023-04-23T00:18:17.639Z,57.89
2023-04-23T00:19:17.625Z,58.09
2023-04-23T00:20:17.575Z,58.00
2023-04-23T00:21:17.448Z,58.20
2023-04-23T00:22:17.431Z,58.20
2023-04-23T00:23:17.423Z,58.09
2023-04-23T00:24:17.411Z,58.30
2023-04-23T00:25:17.391Z,58.30
2023-04-23T00:26:17.368Z,58.30
2023-04-23T00:27:17.362Z,58.30
2023-04-23T00:28:17.360Z,58.40
2023-04-23T00:29:17.339Z,58.40
2023-04-23T00:30:17.328Z,58.40
2023-04-23T00:31:17.439Z,58.40
2023-04-23T00:32:17.293Z,58.60
2023-04-23T00:33:17.314Z,58.60
2023-04-23T00:34:17.294Z,58.60
2023-04-23T00:35:17.262Z,58.70
2023-04-23T00:36:17.322Z,58.70
2023-04-23T00:37:17.329Z,58.80
2023-04-23T00:38:17.302Z,58.83
2023-04-23T00:39:17.229Z,58.73
2023-04-23T00:40:17.288Z,58.83
2023-04-23T00:41:17.184Z,58.93
2023-04-23T00:42:17.157Z,58.93
2023-04-23T00:43:17.160Z,58.73
2023-04-23T00:44:17.142Z,58.93
2023-04-23T00:45:17.126Z,59.03
2023-04-23T00:46:17.280Z,59.03
2023-04-23T00:47:17.125Z,59.14
2023-04-23T00:48:17.090Z,59.14
2023-04-23T00:49:17.073Z,59.14
2023-04-23T00:50:17.066Z,59.23
2023-04-23T00:51:17.051Z,59.44
2023-04-23T00:52:17.030Z,59.23
2023-04-23T00:53:17.026Z,59.34
2023-04-23T00:54:17.001Z,59.34
2023-04-23T00:55:16.993Z,59.44
2023-04-23T00:56:16.974Z,59.54
2023-04-23T00:57:16.973Z,59.54
2023-04-23T00:58:16.962Z,59.54
2023-04-23T00:59:16.940Z,59.34
2023-04-23T01:00:16.973Z,59.44
2023-04-23T01:01:16.913Z,59.44
2023-04-23T01:02:16.990Z,59.44
2023-04-23T01:03:16.981Z,59.54
2023-04-23T01:04:18.259Z,59.54
2023-04-23T01:05:16.861Z,59.44
2023-04-23T01:06:16.917Z,59.54
2023-04-23T01:07:16.842Z,59.56
2023-04-23T01:08:16.848Z,59.47
2023-04-23T01:09:16.813Z,59.56
2023-04-23T01:10:17.204Z,59.67
2023-04-23T01:11:16.782Z,59.67
2023-04-23T01:12:16.779Z,59.56
2023-04-23T01:13:16.776Z,59.56
2023-04-23T01:14:16.740Z,59.56
2023-04-23T01:15:16.783Z,59.67
2023-04-23T01:16:16.769Z,59.56
2023-04-23T01:17:16.709Z,59.56
2023-04-23T01:18:16.734Z,59.56
2023-04-23T01:19:16.677Z,59.77
2023-04-23T01:20:16.672Z,59.67
2023-04-23T01:21:16.657Z,59.67
2023-04-23T01:22:16.635Z,59.77
2023-04-23T01:23:16.642Z,59.77
2023-04-23T01:24:16.642Z,59.77
2023-04-23T01:25:16.602Z,59.77
2023-04-23T01:26:16.583Z,59.97
2023-04-23T01:27:16.582Z,60.07
2023-04-23T01:28:16.573Z,60.07
2023-04-23T01:29:16.553Z,60.07
2023-04-23T01:30:16.534Z,60.27
2023-04-23T01:31:16.565Z,60.17
2023-04-23T01:32:16.503Z,60.27
2023-04-23T01:33:16.512Z,60.38
2023-04-23T01:34:16.473Z,60.38
2023-04-23T01:35:16.488Z,60.68
2023-04-23T01:36:16.459Z,60.68
2023-04-23T01:37:16.444Z,60.68
2023-04-23T01:38:16.442Z,60.68
2023-04-23T01:39:16.419Z,60.68
2023-04-23T01:40:16.416Z,60.68
2023-04-23T01:41:16.393Z,60.71
2023-04-23T01:42:16.388Z,60.58
2023-04-23T01:43:16.396Z,60.81
2023-04-23T01:44:16.354Z,61.01
2023-04-23T01:45:16.341Z,61.01
2023-04-23T01:46:16.355Z,61.01
2023-04-23T01:47:16.311Z,61.01
2023-04-23T01:48:16.304Z,61.01
2023-04-23T01:49:16.303Z,61.11
2023-04-23T01:50:16.279Z,61.21
2023-04-23T01:51:16.268Z,61.21
2023-04-23T01:52:16.257Z,61.32
2023-04-23T01:53:16.253Z,61.32
2023-04-23T01:54:16.218Z,61.32
2023-04-23T01:55:16.223Z,61.32
2023-04-23T01:56:16.189Z,61.32
2023-04-23T01:57:16.180Z,61.41
2023-04-23T01:58:16.167Z,61.52
2023-04-23T01:59:16.157Z,61.52
2023-04-23T02:00:16.147Z,61.72
2023-04-23T02:01:16.159Z,61.82
2023-04-23T02:02:16.138Z,61.82
2023-04-23T02:03:16.276Z,61.82
2023-04-23T02:04:16.192Z,61.72
2023-04-23T02:05:16.080Z,61.82
2023-04-23T02:06:16.056Z,61.82
2023-04-23T02:07:16.050Z,62.02
2023-04-23T02:08:16.042Z,62.12
2023-04-23T02:09:16.035Z,62.33
2023-04-23T02:10:16.012Z,62.43
2023-04-23T02:11:16.009Z,62.53
2023-04-23T02:12:15.983Z,62.53
2023-04-23T02:13:15.980Z,62.63
2023-04-23T02:14:15.952Z,62.43
2023-04-23T02:15:15.953Z,62.73
2023-04-23T02:16:15.958Z,62.84
2023-04-23T02:17:15.930Z,62.93
2023-04-23T02:18:15.917Z,62.93
2023-04-23T02:19:16.037Z,63.13
2023-04-23T02:20:15.870Z,62.93
2023-04-23T02:21:15.871Z,63.04
2023-04-23T02:22:15.845Z,62.93
2023-04-23T02:23:15.846Z,63.17
2023-04-23T02:24:15.827Z,63.24
2023-04-23T02:25:15.825Z,63.47
2023-04-23T02:26:15.806Z,63.57
2023-04-23T02:27:15.785Z,63.78
2023-04-23T02:28:15.780Z,63.98
2023-04-23T02:29:15.769Z,63.98
2023-04-23T02:30:15.768Z,64.07
2023-04-23T02:31:15.763Z,64.18
2023-04-23T02:32:15.728Z,64.18
2023-04-23T02:33:15.721Z,64.38
2023-04-23T02:34:15.689Z,64.28
2023-04-23T02:35:15.704Z,64.48
2023-04-23T02:36:15.740Z,64.48
2023-04-23T02:37:15.674Z,64.79
2023-04-23T02:38:15.895Z,64.79
2023-04-23T02:39:17.078Z,64.99
2023-04-23T02:40:15.632Z,64.79
2023-04-23T02:41:15.619Z,64.89
2023-04-23T02:42:15.592Z,64.89
2023-04-23T02:43:15.609Z,64.99
2023-04-23T02:44:15.574Z,64.99
2023-04-23T02:45:15.556Z,65.29
2023-04-23T02:46:15.623Z,65.29
2023-04-23T02:47:15.515Z,65.39
2023-04-23T02:48:15.521Z,65.29
2023-04-23T02:49:15.522Z,65.50
2023-04-23T02:50:15.510Z,65.50
2023-04-23T02:51:15.508Z,65.50
2023-04-23T02:52:15.475Z,65.70
2023-04-23T02:53:15.462Z,65.59
2023-04-23T02:54:15.465Z,65.80
2023-04-23T02:55:15.432Z,65.59
2023-04-23T02:56:15.507Z,65.70
2023-04-23T02:57:15.413Z,65.83
2023-04-23T02:58:15.398Z,65.93
2023-04-23T02:59:15.379Z,66.03
2023-04-23T03:00:15.385Z,66.13
2023-04-23T03:01:15.408Z,65.83
2023-04-23T03:02:15.395Z,66.03
2023-04-23T03:03:15.495Z,66.33
2023-04-23T03:04:15.333Z,66.33
2023-04-23T03:05:15.296Z,66.33
2023-04-23T03:06:15.279Z,66.24
2023-04-23T03:07:15.263Z,66.54
2023-04-23T03:08:15.280Z,66.54
2023-04-23T03:09:15.250Z,66.94
2023-04-23T03:10:15.254Z,66.64
2023-04-23T03:11:15.221Z,66.64
2023-04-23T03:12:15.208Z,66.64
2023-04-23T03:13:15.194Z,66.74
2023-04-23T03:14:15.193Z,66.94
2023-04-23T03:15:15.173Z,67.05
2023-04-23T03:16:15.171Z,67.14
2023-04-23T03:17:15.129Z,67.25
2023-04-23T03:18:15.144Z,67.18
2023-04-23T03:19:15.112Z,67.28
2023-04-23T03:20:15.126Z,67.08
2023-04-23T03:21:15.091Z,67.18
2023-04-23T03:22:15.094Z,66.97
2023-04-23T03:23:15.081Z,67.38
2023-04-23T03:24:15.059Z,67.58
2023-04-23T03:25:15.025Z,67.58
2023-04-23T03:26:15.025Z,67.38
2023-04-23T03:27:15.019Z,67.58
2023-04-23T03:28:15.006Z,67.99
2023-04-23T03:29:14.991Z,67.68
2023-04-23T03:30:14.983Z,67.89
2023-04-23T03:31:15.062Z,67.89
2023-04-23T03:32:14.940Z,67.99
2023-04-23T03:33:14.947Z,67.99
2023-04-23T03:34:14.937Z,68.19
2023-04-23T03:35:14.917Z,67.99
2023-04-23T03:36:14.892Z,68.09
2023-04-23T03:37:14.884Z,68.29
2023-04-23T03:38:14.894Z,68.29
2023-04-23T03:39:14.852Z,68.43
2023-04-23T03:40:14.851Z,68.52
2023-04-23T03:41:14.834Z,68.52
2023-04-23T03:42:14.829Z,68.32
2023-04-23T03:43:14.812Z,68.32
2023-04-23T03:44:14.796Z,68.63
2023-04-23T03:45:14.764Z,68.63
2023-04-23T03:46:14.778Z,68.52
2023-04-23T03:47:14.743Z,68.52
2023-04-23T03:48:14.756Z,68.63
2023-04-23T03:49:14.717Z,68.63
2023-04-23T03:50:14.710Z,68.63
2023-04-23T03:51:14.694Z,68.52
2023-04-23T03:52:14.710Z,68.63
2023-04-23T03:53:14.674Z,68.63
2023-04-23T03:54:14.660Z,68.73
2023-04-23T03:55:14.652Z,68.73
2023-04-23T03:56:14.649Z,68.73
2023-04-23T03:57:14.641Z,68.73
2023-04-23T03:58:14.613Z,68.63
2023-04-23T03:59:14.615Z,68.63
2023-04-23T04:00:14.605Z,68.76
2023-04-23T04:01:14.591Z,68.76
2023-04-23T04:02:14.641Z,68.96
2023-04-23T04:03:14.768Z,68.87
2023-04-23T04:04:14.847Z,68.96
2023-04-23T04:05:14.648Z,68.96
2023-04-23T04:06:14.533Z,69.07
2023-04-23T04:07:14.531Z,68.96
2023-04-23T04:08:14.510Z,68.96
2023-04-23T04:09:14.502Z,68.87
2023-04-23T04:10:14.517Z,69.17
2023-04-23T04:11:14.445Z,69.27
2023-04-23T04:12:14.435Z,69.17
2023-04-23T04:13:14.449Z,68.96
2023-04-23T04:14:14.427Z,69.07
2023-04-23T04:15:14.439Z,69.07
2023-04-23T04:16:14.403Z,69.17
2023-04-23T04:17:14.360Z,69.07
2023-04-23T04:18:14.549Z,69.60
2023-04-23T04:19:14.346Z,69.60
2023-04-23T04:20:14.374Z,69.60
2023-04-23T04:21:14.344Z,69.60
2023-04-23T04:22:14.301Z,69.51
2023-04-23T04:23:14.286Z,69.81
2023-04-23T04:24:14.305Z,69.91
2023-04-23T04:25:14.265Z,69.91
2023-04-23T04:26:14.257Z,69.91
2023-04-23T04:27:14.223Z,69.81
2023-04-23T04:28:14.252Z,69.91
2023-04-23T04:29:14.223Z,69.91
2023-04-23T04:30:14.208Z,70.01
2023-04-23T04:31:14.236Z,69.91
2023-04-23T04:32:14.184Z,69.81
2023-04-23T04:33:14.170Z,69.81
2023-04-23T04:34:14.180Z,69.81
2023-04-23T04:35:14.127Z,69.71
2023-04-23T04:36:14.120Z,69.74
2023-04-23T04:37:14.125Z,69.84
2023-04-23T04:38:14.098Z,69.74
2023-04-23T04:39:14.094Z,69.95
2023-04-23T04:40:14.056Z,70.15
2023-04-23T04:41:14.036Z,70.04
2023-04-23T04:42:14.042Z,70.15
2023-04-23T04:43:14.022Z,70.25
2023-04-23T04:44:14.015Z,70.25
2023-04-23T04:45:14.005Z,70.25
2023-04-23T04:46:14.043Z,70.25
2023-04-23T04:47:13.960Z,70.25
2023-04-23T04:48:13.950Z,70.25
2023-04-23T04:49:13.937Z,70.25
2023-04-23T04:50:13.938Z,69.95
2023-04-23T04:51:13.916Z,70.04
2023-04-23T04:52:13.908Z,69.95
2023-04-23T04:53:13.898Z,69.95
2023-04-23T04:54:13.912Z,69.95
2023-04-23T04:55:13.851Z,70.04
2023-04-23T04:56:13.860Z,70.15
2023-04-23T04:57:13.820Z,70.45
2023-04-23T04:58:13.820Z,70.45
2023-04-23T04:59:13.842Z,70.45
2023-04-23T05:00:13.786Z,70.59
2023-04-23T05:01:13.806Z,70.48
2023-04-23T05:02:13.934Z,70.59
2023-04-23T05:03:14.582Z,70.38
2023-04-23T05:04:13.900Z,70.59
2023-04-23T05:05:13.735Z,70.48
2023-04-23T05:06:13.759Z,70.48
2023-04-23T05:07:13.691Z,70.68
2023-04-23T05:08:13.705Z,70.59
2023-04-23T05:09:13.812Z,70.59
2023-04-23T05:10:13.670Z,70.59
2023-04-23T05:11:13.649Z,70.48
2023-04-23T05:12:13.699Z,70.28
2023-04-23T05:13:13.629Z,70.18
2023-04-23T05:14:13.628Z,70.48
2023-04-23T05:15:13.646Z,70.38
2023-04-23T05:16:13.614Z,70.59
2023-04-23T05:17:13.742Z,70.38
2023-04-23T05:18:13.561Z,70.18
2023-04-23T05:19:13.553Z,70.38
2023-04-23T05:20:13.549Z,70.38
2023-04-23T05:21:13.504Z,70.79
2023-04-23T05:22:13.525Z,70.68
2023-04-23T05:23:13.516Z,70.68
2023-04-23T05:24:13.522Z,70.68
2023-04-23T05:25:13.519Z,70.89
2023-04-23T05:26:13.468Z,70.79
2023-04-23T05:27:13.481Z,70.79
2023-04-23T05:28:13.428Z,70.79
2023-04-23T05:29:13.433Z,70.89
2023-04-23T05:30:13.411Z,70.68
2023-04-23T05:31:13.402Z,70.79
2023-04-23T05:32:13.419Z,70.68
2023-04-23T05:33:13.371Z,70.68
2023-04-23T05:34:13.376Z,70.89
2023-04-23T05:35:13.338Z,70.79
2023-04-23T05:36:13.328Z,70.79
2023-04-23T05:37:13.297Z,70.99
2023-04-23T05:38:13.285Z,70.99
2023-04-23T05:39:13.281Z,70.89
2023-04-23T05:40:13.264Z,70.79
2023-04-23T05:41:13.262Z,70.59
2023-04-23T05:42:13.287Z,70.68
2023-04-23T05:43:13.209Z,70.99
2023-04-23T05:44:13.216Z,71.20
2023-04-23T05:45:13.188Z,71.20
2023-04-23T05:46:13.217Z,71.20
2023-04-23T05:47:13.209Z,71.20
2023-04-23T05:48:13.149Z,71.20
2023-04-23T05:49:13.141Z,71.30
2023-04-23T05:50:13.127Z,71.40
2023-04-23T05:51:13.113Z,71.20
2023-04-23T05:52:13.113Z,71.09
2023-04-23T05:53:13.093Z,70.99
2023-04-23T05:54:13.095Z,70.89
2023-04-23T05:55:13.096Z,70.79
2023-04-23T05:56:13.043Z,70.79
2023-04-23T05:57:13.121Z,70.68
2023-04-23T05:58:13.078Z,70.59
2023-04-23T05:59:13.029Z,70.89
2023-04-23T06:00:13.044Z,71.09
2023-04-23T06:01:12.980Z,71.20
2023-04-23T06:02:13.066Z,71.30
2023-04-23T06:03:13.077Z,71.20
2023-04-23T06:04:13.103Z,71.20
2023-04-23T06:05:13.091Z,71.40
2023-04-23T06:06:12.940Z,71.30
2023-04-23T06:07:12.924Z,71.20
2023-04-23T06:08:12.901Z,71.09
2023-04-23T06:09:12.914Z,70.89
2023-04-23T06:10:12.907Z,71.09
2023-04-23T06:11:12.862Z,71.09
2023-04-23T06:12:12.845Z,70.99
2023-04-23T06:13:12.820Z,71.09
2023-04-23T06:14:12.830Z,70.99
2023-04-23T06:15:12.857Z,71.20
2023-04-23T06:16:12.850Z,71.30
2023-04-23T06:17:12.951Z,71.16
2023-04-23T06:18:12.803Z,71.06
2023-04-23T06:19:12.762Z,71.36
2023-04-23T06:20:12.744Z,71.16
2023-04-23T06:21:12.749Z,70.96
2023-04-23T06:22:12.741Z,70.86
2023-04-23T06:23:12.687Z,71.16
2023-04-23T06:24:12.711Z,71.16
2023-04-23T06:25:12.683Z,70.96
2023-04-23T06:26:12.667Z,71.16
2023-04-23T06:27:12.681Z,71.26
2023-04-23T06:28:12.629Z,71.26
2023-04-23T06:29:12.638Z,71.26
2023-04-23T06:30:12.651Z,71.47
2023-04-23T06:31:12.719Z,71.47
2023-04-23T06:32:12.661Z,71.36
2023-04-23T06:33:12.561Z,71.16
2023-04-23T06:34:12.629Z,70.96
2023-04-23T06:35:12.558Z,71.16
2023-04-23T06:36:12.549Z,71.26
2023-04-23T06:37:12.529Z,71.36
2023-04-23T06:38:12.509Z,71.16
2023-04-23T06:39:12.492Z,71.06
2023-04-23T06:40:12.486Z,71.47
2023-04-23T06:41:12.455Z,71.67
2023-04-23T06:42:12.454Z,71.57
2023-04-23T06:43:12.438Z,71.16
2023-04-23T06:44:12.428Z,71.06
2023-04-23T06:45:12.414Z,71.26
2023-04-23T06:46:12.402Z,70.96
2023-04-23T06:47:12.529Z,71.36
2023-04-23T06:48:12.431Z,71.36
2023-04-23T06:49:12.374Z,71.09
2023-04-23T06:50:12.411Z,70.99
2023-04-23T06:51:12.349Z,70.89
2023-04-23T06:52:12.325Z,70.89
2023-04-23T06:53:12.418Z,70.99
2023-04-23T06:54:12.320Z,71.20
2023-04-23T06:55:12.276Z,71.50
2023-04-23T06:56:12.271Z,71.26
2023-04-23T06:57:12.258Z,71.26
2023-04-23T06:58:13.661Z,71.26
2023-04-23T06:59:12.337Z,71.16
2023-04-23T07:00:12.400Z,71.26
2023-04-23T07:01:12.343Z,71.06
2023-04-23T07:02:12.333Z,70.96
2023-04-23T07:03:12.385Z,71.47
2023-04-23T07:04:12.201Z,71.88
2023-04-23T07:05:12.178Z,71.97
2023-04-23T07:06:12.165Z,72.38
2023-04-23T07:07:12.152Z,72.48
2023-04-23T07:08:12.120Z,72.38
2023-04-23T07:09:12.147Z,72.28
2023-04-23T07:10:12.099Z,72.58
2023-04-23T07:11:12.106Z,72.17
2023-04-23T07:12:12.100Z,72.28
2023-04-23T07:13:12.275Z,72.48
2023-04-23T07:14:12.085Z,72.38
2023-04-23T07:15:12.065Z,72.38
2023-04-23T07:16:12.095Z,72.38
2023-04-23T07:17:12.075Z,72.48
2023-04-23T07:18:12.006Z,72.78
2023-04-23T07:19:12.051Z,72.89
2023-04-23T07:20:11.999Z,72.89
2023-04-23T07:21:11.966Z,72.69
2023-04-23T07:22:11.944Z,72.69
2023-04-23T07:23:11.936Z,72.69
2023-04-23T07:24:12.028Z,72.78
2023-04-23T07:25:12.009Z,72.58
2023-04-23T07:26:11.942Z,72.58
2023-04-23T07:27:11.928Z,72.38
2023-04-23T07:28:11.910Z,72.28
2023-04-23T07:29:11.891Z,72.08
2023-04-23T07:30:11.889Z,71.94
2023-04-23T07:31:11.854Z,71.84
2023-04-23T07:32:11.872Z,71.73
2023-04-23T07:33:11.834Z,71.73
2023-04-23T07:34:11.831Z,71.84
2023-04-23T07:35:11.801Z,71.80
2023-04-23T07:36:11.792Z,71.70
2023-04-23T07:37:11.806Z,71.80
2023-04-23T07:38:11.953Z,71.67
2023-04-23T07:39:11.791Z,71.77
2023-04-23T07:40:11.714Z,71.88
2023-04-23T07:41:11.700Z,71.73
2023-04-23T07:42:11.751Z,71.64
2023-04-23T07:43:11.672Z,71.53
2023-04-23T07:44:11.729Z,71.70
2023-04-23T07:45:11.662Z,71.70
2023-04-23T07:46:11.885Z,71.50
2023-04-23T07:47:11.676Z,71.30
2023-04-23T07:48:11.614Z,70.96
2023-04-23T07:49:11.618Z,70.76
2023-04-23T07:50:11.636Z,70.86
2023-04-23T07:51:11.601Z,70.76
2023-04-23T07:52:11.594Z,70.52
2023-04-23T07:53:11.565Z,70.42
2023-04-23T07:54:11.593Z,70.42
2023-04-23T07:55:11.530Z,70.29
2023-04-23T07:56:11.534Z,70.29
2023-04-23T07:57:11.518Z,70.29
2023-04-23T07:58:11.527Z,70.36
2023-04-23T07:59:11.482Z,70.42
2023-04-23T08:00:11.488Z,70.29
2023-04-23T08:01:11.461Z,69.85
2023-04-23T08:02:11.509Z,69.45
2023-04-23T08:03:11.530Z,69.15
2023-04-23T08:04:11.668Z,68.81
2023-04-23T08:05:11.777Z,68.51
2023-04-23T08:06:11.372Z,68.48
2023-04-23T08:07:11.362Z,68.54
2023-04-23T08:08:11.349Z,68.31
2023-04-23T08:09:11.352Z,68.04
2023-04-23T08:10:11.355Z,67.27
2023-04-23T08:11:11.324Z,67.01
2023-04-23T08:12:11.314Z,66.44
2023-04-23T08:13:11.308Z,65.64
2023-04-23T08:14:11.292Z,65.21
2023-04-23T08:15:11.269Z,64.98
2023-04-23T08:16:11.289Z,64.18
2023-04-23T08:17:11.252Z,63.64
2023-04-23T08:18:11.224Z,63.37
2023-04-23T08:19:11.388Z,63.17
2023-04-23T08:20:11.193Z,63.11
2023-04-23T08:21:11.165Z,62.78
2023-04-23T08:22:11.167Z,62.25
2023-04-23T08:23:11.168Z,61.89
2023-04-23T08:24:11.142Z,61.46
2023-04-23T08:25:11.138Z,60.74
2023-04-23T08:26:11.116Z,60.50
2023-04-23T08:27:11.130Z,59.95
2023-04-23T08:28:11.083Z,59.22
2023-04-23T08:29:11.696Z,59.00
2023-04-23T08:30:11.070Z,58.37
2023-04-23T08:31:22.695Z,57.75
2023-04-23T08:32:12.117Z,56.89
2023-04-23T08:33:11.029Z,56.47
2023-04-23T08:34:11.079Z,55.94
2023-04-23T08:35:10.998Z,55.32
2023-04-23T08:36:10.971Z,54.70
2023-04-23T08:37:19.607Z,54.40
2023-04-23T08:38:11.942Z,54.08
2023-04-23T08:39:10.947Z,53.45
2023-04-23T08:40:10.964Z,52.96
2023-04-23T08:41:10.916Z,52.73
2023-04-23T08:42:10.940Z,52.31
2023-04-23T08:43:10.908Z,51.52
2023-04-23T08:44:10.899Z,51.23
2023-04-23T08:45:10.854Z,50.95
2023-04-23T08:46:10.854Z,51.15
2023-04-23T08:47:10.844Z,51.03
2023-04-23T08:48:10.901Z,51.00
2023-04-23T08:49:10.891Z,50.78
2023-04-23T08:50:10.814Z,50.26
2023-04-23T08:51:10.806Z,49.35
2023-04-23T08:52:10.781Z,49.02
2023-04-23T08:53:10.779Z,49.02
2023-04-23T08:54:10.755Z,48.71
2023-04-23T08:55:10.864Z,48.61
2023-04-23T08:56:10.749Z,48.28
2023-04-23T08:57:10.749Z,48.28
2023-04-23T08:58:10.696Z,47.99
2023-04-23T08:59:10.713Z,47.87
2023-04-23T09:00:10.690Z,47.08
2023-04-23T09:01:10.711Z,47.08
2023-04-23T09:02:10.755Z,46.56
2023-04-23T09:03:10.973Z,46.86
2023-04-23T09:04:10.635Z,46.25
2023-04-23T09:05:10.651Z,46.12
2023-04-23T09:06:10.593Z,46.10
2023-04-23T09:07:10.635Z,45.88
2023-04-23T09:08:10.575Z,45.17
2023-04-23T09:09:10.551Z,44.38
2023-04-23T09:10:10.559Z,44.17
2023-04-23T09:11:10.559Z,43.77
2023-04-23T09:12:10.517Z,43.55
2023-04-23T09:13:10.539Z,43.26
2023-04-23T09:14:10.485Z,42.65
2023-04-23T09:15:10.507Z,42.94
2023-04-23T09:16:10.517Z,42.24
2023-04-23T09:17:10.476Z,42.25
2023-04-23T09:18:10.468Z,41.78
2023-04-23T09:19:10.445Z,41.41
2023-04-23T09:20:10.407Z,41.43
2023-04-23T09:21:10.385Z,41.77
2023-04-23T09:22:10.391Z,41.49
2023-04-23T09:23:10.360Z,40.64
2023-04-23T09:24:10.353Z,41.46
2023-04-23T09:25:10.346Z,42.07
2023-04-23T09:26:10.329Z,42.26
2023-04-23T09:27:10.309Z,42.34
2023-04-23T09:28:10.289Z,42.60
2023-04-23T09:29:10.277Z,42.58
2023-04-23T09:30:10.262Z,42.46
2023-04-23T09:31:10.256Z,41.94
2023-04-23T09:32:10.495Z,41.75
2023-04-23T09:33:10.223Z,41.45
2023-04-23T09:34:10.206Z,41.65
2023-04-23T09:35:10.213Z,41.43
2023-04-23T09:36:10.180Z,41.61
2023-04-23T09:37:10.172Z,41.41
2023-04-23T09:38:10.159Z,41.00
2023-04-23T09:39:10.154Z,41.00
2023-04-23T09:40:10.145Z,40.48
2023-04-23T09:41:10.135Z,40.11
2023-04-23T09:42:10.131Z,40.00
2023-04-23T09:43:10.145Z,40.08
2023-04-23T09:44:10.080Z,39.95
2023-04-23T09:45:10.085Z,39.25
2023-04-23T09:46:10.115Z,38.37
2023-04-23T09:47:10.054Z,38.64
2023-04-23T09:48:10.123Z,37.94
2023-04-23T09:49:10.084Z,37.35
2023-04-23T09:50:10.009Z,37.52
2023-04-23T09:51:09.995Z,37.52
2023-04-23T09:52:09.974Z,37.61
2023-04-23T09:53:09.988Z,37.19
2023-04-23T09:54:09.945Z,37.00
2023-04-23T09:55:09.963Z,37.37
2023-04-23T09:56:09.923Z,37.18
2023-04-23T09:57:09.906Z,36.67
2023-04-23T09:58:09.900Z,36.28
2023-04-23T09:59:09.884Z,36.16
2023-04-23T10:00:14.271Z,36.26
2023-04-23T10:01:10.902Z,36.15
2023-04-23T10:02:09.929Z,35.85
2023-04-23T10:03:10.266Z,35.55
2023-04-23T10:04:10.012Z,34.96
2023-04-23T10:05:21.655Z,34.68
2023-04-23T10:06:17.301Z,34.88
2023-04-23T10:07:17.923Z,34.48
2023-04-23T10:08:12.571Z,34.28
2023-04-23T10:09:09.757Z,34.57
2023-04-23T10:10:09.741Z,34.67
2023-04-23T10:11:19.956Z,34.86
2023-04-23T10:12:27.841Z,34.75
2023-04-23T10:13:10.695Z,34.94
2023-04-23T10:14:09.696Z,34.63
2023-04-23T10:15:09.681Z,34.44
2023-04-23T10:16:21.676Z,33.73
2023-04-23T10:17:10.766Z,33.73
2023-04-23T10:18:09.633Z,33.73
2023-04-23T10:19:09.633Z,32.18
2023-04-23T10:20:09.618Z,32.75
2023-04-23T10:21:09.592Z,32.94
2023-04-23T10:23:10.569Z,32.82
2023-04-23T10:24:09.550Z,32.62
2023-04-23T10:25:09.555Z,32.62
2023-04-23T10:26:09.525Z,32.71
2023-04-23T10:27:23.968Z,32.31
2023-04-23T10:28:10.492Z,32.11
2023-04-23T10:29:09.488Z,31.73
2023-04-23T10:30:09.492Z,31.51
2023-04-23T10:31:09.529Z,31.41
2023-04-23T10:32:09.452Z,31.51
2023-04-23T10:33:18.799Z,31.79
2023-04-23T10:34:10.445Z,31.30
2023-04-23T10:35:09.420Z,31.01
2023-04-23T10:36:09.394Z,30.43
2023-04-23T10:37:09.383Z,30.51
2023-04-23T10:38:09.367Z,30.22
2023-04-23T10:39:09.599Z,30.51
2023-04-23T10:40:09.382Z,30.12
2023-04-23T10:41:09.360Z,30.12
2023-04-23T10:42:09.309Z,29.74
2023-04-23T10:43:09.306Z,29.44
2023-04-23T10:44:09.359Z,29.74
2023-04-23T10:46:09.292Z,29.64
2023-04-23T10:47:09.257Z,29.93
2023-04-23T10:48:09.248Z,30.12
2023-04-23T10:49:09.235Z,30.12
2023-04-23T10:50:09.365Z,29.85
2023-04-23T10:51:35.405Z,30.04
2023-04-23T10:53:09.176Z,29.66
2023-04-23T10:54:09.182Z,29.86
2023-04-23T10:55:09.178Z,30.36
2023-04-23T10:56:09.126Z,30.57
2023-04-23T10:57:09.128Z,31.20
2023-04-23T10:58:09.105Z,31.31
2023-04-23T10:59:09.104Z,31.93
2023-04-23T11:00:09.090Z,32.14
2023-04-23T11:01:09.079Z,32.26
2023-04-23T11:02:09.302Z,32.46
2023-04-23T11:03:09.154Z,32.86
2023-04-23T11:04:09.191Z,32.95
2023-04-23T11:05:09.070Z,33.05
2023-04-23T11:06:09.009Z,33.15
2023-04-23T11:07:08.998Z,33.45
2023-04-23T11:08:18.786Z,34.05
2023-04-23T11:09:09.966Z,33.95
2023-04-23T11:10:08.960Z,33.75
2023-04-23T11:11:08.945Z,34.05
2023-04-23T11:12:08.942Z,34.05
2023-04-23T11:13:08.908Z,34.45
2023-04-23T11:14:08.900Z,34.38
2023-04-23T11:15:08.894Z,34.49
2023-04-23T11:16:08.917Z,34.70
2023-04-23T11:17:08.857Z,34.33
2023-04-23T11:18:08.895Z,34.64
2023-04-23T11:19:08.843Z,34.83
2023-04-23T11:20:08.831Z,35.33
2023-04-23T11:21:08.808Z,35.52
2023-04-23T11:22:08.803Z,35.82
2023-04-23T11:23:08.778Z,35.23
2023-04-23T11:24:08.770Z,35.60
2023-04-23T11:25:08.835Z,35.50
2023-04-23T11:26:08.739Z,35.70
2023-04-23T11:27:08.745Z,35.50
2023-04-23T11:28:08.731Z,35.60
2023-04-23T11:29:08.698Z,35.60
2023-04-23T11:30:08.702Z,35.41
2023-04-23T11:31:08.670Z,35.42
2023-04-23T11:32:08.714Z,35.23
2023-04-23T11:33:08.705Z,34.85
2023-04-23T11:34:08.649Z,34.87
2023-04-23T11:35:08.628Z,35.05
2023-04-23T11:36:08.615Z,35.34
2023-04-23T11:37:08.600Z,35.54
2023-04-23T11:38:08.585Z,35.74
2023-04-23T11:39:08.570Z,36.22
2023-04-23T11:40:08.578Z,36.03
2023-04-23T11:41:08.551Z,36.32
2023-04-23T11:42:08.546Z,36.42
2023-04-23T11:43:08.512Z,36.30
2023-04-23T11:44:08.509Z,36.11
2023-04-23T11:45:08.500Z,36.40
2023-04-23T11:46:08.506Z,36.30
2023-04-23T11:47:08.516Z,36.52
2023-04-23T11:48:08.456Z,36.62
2023-04-23T11:49:08.450Z,36.62
2023-04-23T11:50:08.438Z,37.01
2023-04-23T11:51:08.407Z,37.11
2023-04-23T11:52:08.410Z,37.21
2023-04-23T11:53:08.391Z,36.91
2023-04-23T11:54:08.377Z,37.01
2023-04-23T11:55:08.371Z,36.72
2023-04-23T11:56:08.360Z,37.01
2023-04-23T11:57:08.337Z,37.21
2023-04-23T11:58:08.324Z,37.09
2023-04-23T11:59:08.327Z,37.48
2023-04-23T12:00:08.312Z,37.58
2023-04-23T12:01:08.284Z,37.29
2023-04-23T12:02:08.349Z,37.19
2023-04-23T12:03:08.353Z,36.80
2023-04-23T12:04:08.351Z,36.82
2023-04-23T12:05:08.267Z,36.91
2023-04-23T12:06:08.221Z,37.13
2023-04-23T12:07:15.977Z,37.23
2023-04-23T12:08:09.198Z,37.52
2023-04-23T12:09:08.170Z,37.72
2023-04-23T12:10:08.179Z,37.62
2023-04-23T12:11:08.156Z,37.70
2023-04-23T12:12:08.138Z,37.80
2023-04-23T12:13:08.122Z,37.99
2023-04-23T12:14:08.115Z,38.01
2023-04-23T12:15:08.104Z,37.92
2023-04-23T12:16:10.409Z,37.82
2023-04-23T12:17:08.069Z,37.44
2023-04-23T12:18:08.079Z,37.44
2023-04-23T12:19:08.047Z,37.46
2023-04-23T12:20:08.040Z,37.46
2023-04-23T12:21:08.014Z,37.77
2023-04-23T12:22:08.017Z,37.08
2023-04-23T12:23:08.006Z,34.15
2023-04-23T12:24:07.990Z,33.77
2023-04-23T12:25:07.978Z,35.54
2023-04-23T12:26:07.964Z,35.96
2023-04-23T12:27:07.946Z,36.65
2023-04-23T12:28:07.960Z,37.24
2023-04-23T12:29:07.914Z,37.53
2023-04-23T12:30:07.916Z,37.73
2023-04-23T12:31:07.961Z,37.83
2023-04-23T12:32:07.904Z,37.83
2023-04-23T12:33:07.854Z,37.93
2023-04-23T12:34:07.874Z,38.22
2023-04-23T12:35:07.896Z,38.32
2023-04-23T12:36:07.825Z,35.35
2023-04-23T12:37:07.804Z,35.17
2023-04-23T12:38:07.798Z,34.97
2023-04-23T12:39:07.777Z,34.58
2023-04-23T12:40:07.790Z,33.61
2023-04-23T12:41:07.748Z,33.80
2023-04-23T12:42:07.751Z,34.31
2023-04-23T12:43:07.728Z,33.15
2023-04-23T12:44:07.711Z,33.84
2023-04-23T12:45:07.706Z,33.75
2023-04-23T12:46:07.692Z,32.47
2023-04-23T12:47:07.871Z,32.09
2023-04-23T12:48:07.688Z,31.40
2023-04-23T12:49:07.647Z,32.70
2023-04-23T12:50:07.652Z,33.89
2023-04-23T12:51:07.629Z,34.20
2023-04-23T12:52:07.619Z,33.70
2023-04-23T12:53:07.607Z,34.39
2023-04-23T12:54:07.598Z,34.91
2023-04-23T12:55:07.584Z,35.00